Airfield :
LOGIN :

Register | Disclaimer

   EN    FR    IT 

 










Legend :    VFR   Marginal VFR   IFR   Intensive IFR   Very Intensive IFR
Visi :
Ceiling :
>= 8 km
>= 3000ft
5 to 8 km
1000 to 3000 ft
1500m to 5 km
500 to 1000 ft
800 to 1500m
200 to 500 ft
< 800m
< 200 ft
Symbols :   Thunderstorms  Fog  Heavy snow  Heavy precipitations  Wind > 20 kt
SIGMETs :     Misc.  Thunderstorms  Icing  Turbulence  Mountain Waves  Volcanic Ashes







- Airport Elevation : 461 ft
- IATA code : WIE


ETOU - Wiesbaden Army

CURRENT METAR :
  • 251356Z AUTO 09007KT 9999 CLR 15/02 A3066 RMK AO2 SLP387 T01540015 $

EXPIRED METARs :
  • 251256Z AUTO 08005KT 9999 CLR 15/01 A3067 RMK AO2 SLP390 T01490011 $
  • 251156Z AUTO 10006KT 9999 CLR 14/02 A3068 RMK AO2 SLP394 70001 T01440020 10145 20048 58005 $

TAF TAF ETOU
Valid from the 25 at 11:00 until the 26 at 17:00 UTC


251058Z 2511/2617 VRB06KT 9999 FEW045 QNH3053INS TX14/2513Z TN02/2605Z
No reported NOTAMs for that airfield.



MET'MAP, your aeronautical weather chart ! - Copyright ORBIFLY December 2007 - Disclaimer

ORBIFLY MET'MAP TEAM :

Programming & Development : Alexandra Zaïnal
Concept & Development : Baudouin d'Aumeries
Co-Development & Prog : Marc-Olivier Méhu
Technical & hardware support : Manuel Goepfert

Contact : metmap@orbifly.com




SOURCES & CREDITS :

   NOAA